Time;durP1;ratioP1;P1;durP2;ratioP2;P2;SDS_P1;SDS_P2;PMS_P1;PMS_P2;Temp;Humidity;BMP_temperature;BMP_pressure;BME280_temperature;BME280_humidity;BME280_pressure;Samples;Min_cycle;Max_cycle;Signal;HPM_P1;HPM_P2
2021/12/22 00:01:24;;;;;;;3.67;2.17;;;-13.00;99.90;;;;;;5034248;28;20021;-67
2021/12/22 00:03:50;;;;;;;2.50;2.10;;;-13.00;99.90;;;;;;5033894;28;20539;-67
2021/12/22 00:06:22;;;;;;;2.60;2.08;;;-13.00;99.90;;;;;;5034120;28;20405;-67
2021/12/22 00:08:48;;;;;;;6.40;2.30;;;-13.00;99.90;;;;;;5034175;28;20029;-68
2021/12/22 00:11:14;;;;;;;3.42;2.08;;;-13.00;99.90;;;;;;5034027;28;20504;-67
2021/12/22 00:13:40;;;;;;;3.55;2.38;;;-13.00;99.90;;;;;;5033816;28;20030;-67
2021/12/22 00:16:07;;;;;;;3.95;1.85;;;-13.10;99.90;;;;;;5033190;28;20108;-66
2021/12/22 00:18:33;;;;;;;3.15;2.30;;;-13.10;99.90;;;;;;5033612;28;20025;-66
2021/12/22 00:21:00;;;;;;;4.10;2.00;;;-13.10;99.90;;;;;;5033911;28;20048;-66
2021/12/22 00:23:26;;;;;;;4.18;2.28;;;-13.00;99.90;;;;;;5033991;28;20068;-66
2021/12/22 00:25:52;;;;;;;7.60;2.28;;;-13.00;99.90;;;;;;5033472;28;20025;-66
2021/12/22 00:28:17;;;;;;;5.60;2.38;;;-13.00;99.90;;;;;;5033671;28;20033;-66
2021/12/22 00:30:44;;;;;;;3.75;2.35;;;-12.90;99.90;;;;;;5033574;28;20078;-67
2021/12/22 00:33:11;;;;;;;1.83;1.73;;;-12.80;99.90;;;;;;5033531;28;20021;-66
2021/12/22 00:35:40;;;;;;;2.75;1.90;;;-12.90;99.90;;;;;;5033893;28;20030;-66
2021/12/22 00:38:08;;;;;;;4.53;2.30;;;-12.90;99.90;;;;;;5033333;28;20025;-66
2021/12/22 00:40:34;;;;;;;3.92;1.75;;;-12.90;99.90;;;;;;5033812;28;20351;-66
2021/12/22 00:42:59;;;;;;;2.42;2.00;;;-12.90;99.90;;;;;;5033138;28;20028;-67
2021/12/22 00:45:28;;;;;;;2.22;2.03;;;-12.90;99.90;;;;;;5033375;28;20029;-66
2021/12/22 00:47:54;;;;;;;2.65;1.75;;;-12.90;99.90;;;;;;5033226;28;20033;-67
2021/12/22 00:50:20;;;;;;;4.43;1.90;;;-12.90;99.90;;;;;;5033177;28;20041;-66
2021/12/22 00:52:46;;;;;;;3.65;1.85;;;-12.90;99.90;;;;;;5033216;28;20393;-66
2021/12/22 00:55:17;;;;;;;3.55;1.98;;;-13.00;99.90;;;;;;5033193;28;20025;-66
2021/12/22 00:57:42;;;;;;;3.60;1.85;;;-12.90;99.90;;;;;;5033182;28;20452;-67
2021/12/22 01:00:09;;;;;;;1.75;1.63;;;-13.00;99.90;;;;;;5033411;28;20034;-67
2021/12/22 01:02:35;;;;;;;2.22;1.67;;;-13.00;99.90;;;;;;5033302;28;20061;-67
2021/12/22 01:05:00;;;;;;;3.63;1.80;;;-13.00;99.90;;;;;;5033262;28;20385;-67
2021/12/22 01:07:26;;;;;;;4.10;1.85;;;-13.10;99.90;;;;;;5033006;28;20013;-67
2021/12/22 01:09:52;;;;;;;2.08;1.80;;;-13.00;99.90;;;;;;5032637;28;20061;-67
2021/12/22 01:12:18;;;;;;;3.40;2.28;;;-13.10;99.90;;;;;;5032922;28;20025;-67
2021/12/22 01:14:44;;;;;;;1.80;1.67;;;-13.10;99.90;;;;;;5032740;28;20060;-67
2021/12/22 01:17:12;;;;;;;1.85;1.75;;;-13.10;99.90;;;;;;5032700;28;20029;-67
2021/12/22 01:19:56;;;;;;;5.85;2.08;;;-13.20;99.90;;;;;;5032676;28;20024;-67
2021/12/22 01:25:06;;;;;;;3.03;2.13;;;-13.20;99.90;;;;;;5032483;28;20017;-67
2021/12/22 01:27:38;;;;;;;2.07;1.87;;;-13.20;99.90;;;;;;5032626;28;20104;-67
2021/12/22 01:30:09;;;;;;;2.92;1.80;;;-13.10;99.90;;;;;;5032304;28;20291;-67
2021/12/22 01:32:35;;;;;;;2.78;1.88;;;-13.20;99.90;;;;;;5032846;28;20422;-67
2021/12/22 01:35:02;;;;;;;5.53;2.13;;;-13.20;99.90;;;;;;5032229;28;20064;-67
2021/12/22 01:37:28;;;;;;;5.13;1.77;;;-13.20;99.90;;;;;;5032459;28;20024;-66
2021/12/22 01:39:54;;;;;;;5.50;2.10;;;-13.20;99.90;;;;;;5032240;28;20025;-66
2021/12/22 01:42:19;;;;;;;3.17;2.00;;;-13.20;99.90;;;;;;5032372;28;20140;-66
2021/12/22 01:50:43;;;;;;;2.60;1.85;;;-13.20;99.90;;;;;;5032321;28;20091;-66
2021/12/22 01:53:20;;;;;;;4.82;1.92;;;-13.20;99.90;;;;;;5031999;28;20025;-66
2021/12/22 01:56:07;;;;;;;4.53;2.20;;;-13.20;99.90;;;;;;5032097;28;20041;-66
2021/12/22 01:58:38;;;;;;;2.80;1.83;;;-13.30;99.90;;;;;;5032112;28;20509;-66
2021/12/22 02:01:06;;;;;;;3.90;2.15;;;-13.30;99.90;;;;;;5032373;28;20033;-66
2021/12/22 02:03:33;;;;;;;6.50;1.98;;;-13.30;99.90;;;;;;5032278;28;20037;-66
2021/12/22 02:05:59;;;;;;;3.03;1.83;;;-13.40;99.90;;;;;;5031953;28;20036;-66
2021/12/22 02:08:25;;;;;;;3.28;1.90;;;-13.40;99.90;;;;;;5032258;28;20053;-66
2021/12/22 02:10:50;;;;;;;2.88;2.10;;;-13.40;99.90;;;;;;5031777;28;20072;-67
2021/12/22 02:13:23;;;;;;;3.67;2.28;;;-13.30;99.90;;;;;;5030622;28;20025;-67
2021/12/22 02:15:49;;;;;;;7.13;2.30;;;-13.30;99.90;;;;;;5031988;28;20053;-67
2021/12/22 02:18:20;;;;;;;4.63;2.10;;;-13.20;99.90;;;;;;5032360;28;20092;-67
2021/12/22 02:20:48;;;;;;;2.13;1.85;;;-13.10;99.90;;;;;;5032275;28;20048;-67
2021/12/22 02:23:14;;;;;;;2.60;1.90;;;-13.10;99.90;;;;;;5032125;28;20061;-67
2021/12/22 02:52:19;;;;;;;4.82;2.20;;;-12.90;99.90;;;;;;5035659;28;20030;-66
2021/12/22 02:54:53;;;;;;;7.00;2.10;;;-12.90;99.90;;;;;;5035608;28;20155;-65
2021/12/22 02:57:33;;;;;;;2.30;2.10;;;-12.90;99.90;;;;;;5035294;28;20050;-66
2021/12/22 03:02:58;;;;;;;3.00;1.60;;;-12.90;99.90;;;;;;5035269;28;20033;-66
2021/12/22 03:05:24;;;;;;;;;;;-12.80;99.90;;;;;;5035619;28;20065;-66
2021/12/22 03:07:50;;;;;;;5.13;1.75;;;-12.80;99.90;;;;;;5035336;28;19905;-66
2021/12/22 03:10:18;;;;;;;2.45;1.80;;;-12.80;99.90;;;;;;5035101;28;20774;-66
2021/12/22 03:12:47;;;;;;;2.88;2.20;;;-12.80;99.90;;;;;;5035029;28;20044;-67
2021/12/22 03:15:13;;;;;;;2.25;2.05;;;-12.80;99.90;;;;;;5035133;28;20033;-67
2021/12/22 03:17:39;;;;;;;5.20;2.00;;;-12.80;99.90;;;;;;5035073;28;20396;-67
2021/12/22 03:20:11;;;;;;;3.30;2.10;;;-12.80;99.90;;;;;;5035092;28;20426;-67
2021/12/22 03:22:37;;;;;;;3.65;2.42;;;-12.80;99.90;;;;;;5034913;28;20017;-67
2021/12/22 03:25:13;;;;;;;3.03;1.85;;;-12.80;99.90;;;;;;5034964;28;20485;-67
2021/12/22 03:27:39;;;;;;;4.25;2.22;;;-12.80;99.90;;;;;;5035199;28;20025;-67
2021/12/22 03:30:06;;;;;;;6.97;2.00;;;-12.80;99.90;;;;;;5034818;28;20068;-67
2021/12/22 03:32:32;;;;;;;2.00;1.73;;;-12.80;99.90;;;;;;5034844;28;20021;-67
2021/12/22 03:34:57;;;;;;;2.05;1.88;;;-12.80;99.90;;;;;;5034497;28;20034;-67
2021/12/22 03:37:23;;;;;;;2.88;2.25;;;-12.80;99.90;;;;;;5034719;28;20071;-67
2021/12/22 03:39:49;;;;;;;3.95;1.75;;;-12.80;99.90;;;;;;5034515;28;20382;-67
2021/12/22 03:42:15;;;;;;;8.43;2.10;;;-12.90;99.90;;;;;;5034907;28;20023;-67
2021/12/22 03:44:41;;;;;;;14.73;2.70;;;-12.90;99.90;;;;;;5034533;28;20026;-67
2021/12/22 03:47:08;;;;;;;5.85;2.35;;;-12.80;99.90;;;;;;5034844;28;20022;-67
2021/12/22 03:49:34;;;;;;;3.20;2.03;;;-12.80;99.90;;;;;;5034746;28;20394;-67
2021/12/22 03:52:01;;;;;;;2.67;1.67;;;-12.80;99.90;;;;;;5033250;28;20438;-67
2021/12/22 03:54:27;;;;;;;3.30;1.92;;;-12.80;99.90;;;;;;5034647;28;20091;-68
2021/12/22 03:56:53;;;;;;;2.70;1.70;;;-12.90;99.90;;;;;;5034195;28;20038;-67
2021/12/22 03:59:19;;;;;;;4.30;1.77;;;-12.90;99.90;;;;;;5034223;28;20029;-67
2021/12/22 04:01:46;;;;;;;2.92;1.90;;;-13.00;99.90;;;;;;5034217;28;20032;-66
2021/12/22 04:04:15;;;;;;;2.00;1.90;;;-13.00;99.90;;;;;;5034154;28;20024;-67
2021/12/22 04:06:43;;;;;;;1.98;1.83;;;-12.90;99.90;;;;;;5034196;28;20025;-67
2021/12/22 04:09:09;;;;;;;5.40;2.03;;;-12.80;99.90;;;;;;5033864;28;20032;-67
2021/12/22 04:11:35;;;;;;;2.28;1.90;;;-12.80;99.90;;;;;;5033988;28;20037;-67
2021/12/22 04:14:01;;;;;;;3.42;2.13;;;-12.80;99.90;;;;;;5033915;28;20075;-67
2021/12/22 04:16:27;;;;;;;4.28;2.08;;;-12.80;99.90;;;;;;5034203;28;20497;-67
2021/12/22 04:18:53;;;;;;;4.07;2.28;;;-12.70;99.90;;;;;;5034075;28;20026;-66
2021/12/22 04:21:18;;;;;;;7.82;2.10;;;-12.70;99.90;;;;;;5033912;28;20493;-65
2021/12/22 04:23:44;;;;;;;11.18;2.30;;;-12.70;99.90;;;;;;5033917;28;20100;-65
2021/12/22 04:26:12;;;;;;;4.15;1.80;;;-12.80;99.90;;;;;;5034011;28;20381;-65
2021/12/22 04:28:40;;;;;;;4.65;1.95;;;-12.80;99.90;;;;;;5033704;28;20022;-65
2021/12/22 04:31:05;;;;;;;6.70;2.22;;;-12.90;99.90;;;;;;5033925;28;20071;-68
2021/12/22 04:33:31;;;;;;;4.72;1.80;;;-12.90;99.90;;;;;;5033643;28;20053;-65
2021/12/22 04:35:57;;;;;;;1.98;1.77;;;-12.90;99.90;;;;;;5033551;28;20022;-66
2021/12/22 04:38:23;;;;;;;8.43;2.17;;;-12.90;99.90;;;;;;5033937;28;20025;-66
2021/12/22 04:40:50;;;;;;;8.68;2.05;;;-13.00;99.90;;;;;;5033376;28;20068;-66
2021/12/22 04:43:16;;;;;;;2.05;1.85;;;-13.10;99.90;;;;;;5033494;28;20026;-66
2021/12/22 04:45:42;;;;;;;4.43;1.80;;;-13.10;99.90;;;;;;5033679;28;20037;-66
2021/12/22 04:48:09;;;;;;;6.63;2.63;;;-13.10;99.90;;;;;;5033567;28;20025;-67
2021/12/22 04:50:35;;;;;;;3.67;2.25;;;-13.10;99.90;;;;;;5033110;28;20041;-66
2021/12/22 04:53:13;;;;;;;9.43;2.10;;;-13.10;99.90;;;;;;5033135;28;20072;-69
2021/12/22 04:55:39;;;;;;;3.00;2.08;;;-13.20;99.90;;;;;;5033367;28;20037;-67
2021/12/22 04:58:05;;;;;;;4.45;1.92;;;-13.20;99.90;;;;;;5033146;28;20057;-66
2021/12/22 05:00:34;;;;;;;2.38;1.80;;;-13.40;99.90;;;;;;5033083;28;20654;-67
2021/12/22 05:03:00;;;;;;;2.92;1.77;;;-13.40;99.90;;;;;;5032611;28;20030;-66
2021/12/22 05:05:27;;;;;;;5.78;1.73;;;-13.50;99.90;;;;;;5033216;28;20025;-66
2021/12/22 05:07:53;;;;;;;2.17;1.73;;;-13.50;99.90;;;;;;5033046;28;20025;-65
2021/12/22 05:10:20;;;;;;;1.80;1.70;;;-13.60;99.90;;;;;;5033052;28;20041;-65
2021/12/22 05:12:46;;;;;;;4.40;1.75;;;-13.60;99.90;;;;;;5032554;28;20049;-65
2021/12/22 05:15:13;;;;;;;2.47;1.73;;;-13.70;99.90;;;;;;5031163;28;20032;-65
2021/12/22 05:20:09;;;;;;;1.88;1.77;;;-13.80;99.90;;;;;;5032940;28;20517;-65
2021/12/22 05:22:35;;;;;;;1.70;1.60;;;-13.80;99.90;;;;;;5032680;28;20065;-65
2021/12/22 05:25:02;;;;;;;2.63;2.00;;;-13.90;99.90;;;;;;5032317;28;20060;-66
2021/12/22 05:27:30;;;;;;;4.25;2.05;;;-13.90;99.90;;;;;;5032352;28;20051;-66
2021/12/22 05:29:56;;;;;;;2.10;1.90;;;-13.90;99.90;;;;;;5032329;28;20051;-66
2021/12/22 05:32:26;;;;;;;1.77;1.60;;;-13.90;99.90;;;;;;5032317;28;20021;-66
2021/12/22 05:34:52;;;;;;;3.13;1.80;;;-14.00;99.90;;;;;;5031930;28;20469;-66
2021/12/22 05:37:18;;;;;;;1.73;1.63;;;-14.00;99.90;;;;;;5032602;28;20064;-67
2021/12/22 05:39:44;;;;;;;4.07;2.05;;;-14.00;99.90;;;;;;5032208;28;20021;-69
2021/12/22 05:42:10;;;;;;;1.80;1.63;;;-13.70;99.90;;;;;;5032023;28;20405;-70
2021/12/22 05:44:35;;;;;;;3.03;1.90;;;-12.90;99.90;;;;;;5031955;28;20064;-68
2021/12/22 05:47:01;;;;;;;4.78;2.00;;;-13.20;99.90;;;;;;5045710;28;20021;-69
2021/12/22 05:49:27;;;;;;;5.78;3.15;;;-13.50;99.90;;;;;;5042200;28;20486;-69
2021/12/22 05:51:53;;;;;;;2.40;2.20;;;-13.80;99.90;;;;;;5040292;28;20025;-72
2021/12/22 05:54:18;;;;;;;1.83;1.73;;;-13.90;99.90;;;;;;5042268;28;20025;-70
2021/12/22 05:56:44;;;;;;;2.13;1.70;;;-13.90;99.90;;;;;;5038050;28;20394;-68
2021/12/22 05:59:10;;;;;;;2.15;1.95;;;-14.00;99.90;;;;;;5038589;28;20098;-66
2021/12/22 06:01:35;;;;;;;2.55;1.88;;;-14.10;99.90;;;;;;5042173;28;20362;-66
2021/12/22 06:04:03;;;;;;;2.72;2.28;;;-14.10;99.90;;;;;;5045672;28;20039;-66
2021/12/22 06:06:29;;;;;;;1.80;1.70;;;-14.20;99.90;;;;;;5040929;28;20197;-65
2021/12/22 06:08:55;;;;;;;6.32;2.17;;;-14.20;99.90;;;;;;5040462;28;20048;-66
2021/12/22 06:11:21;;;;;;;3.65;2.08;;;-14.30;99.90;;;;;;5039566;28;20036;-65
2021/12/22 06:13:47;;;;;;;2.00;1.80;;;-14.30;99.90;;;;;;5042390;28;20018;-66
2021/12/22 06:16:13;;;;;;;2.03;1.83;;;-14.40;99.90;;;;;;5041614;28;20125;-66
2021/12/22 06:18:43;;;;;;;2.33;1.90;;;-14.40;99.90;;;;;;5037094;28;20037;-66
2021/12/22 06:21:11;;;;;;;2.85;1.88;;;-14.50;99.90;;;;;;5031973;28;20038;-65
2021/12/22 06:23:37;;;;;;;3.13;1.90;;;-14.50;99.90;;;;;;5031984;28;20056;-68
2021/12/22 06:26:03;;;;;;;2.53;2.15;;;-14.50;99.90;;;;;;5031845;28;20025;-68
2021/12/22 06:28:29;;;;;;;1.90;1.80;;;-14.60;99.90;;;;;;5031688;28;20124;-68
2021/12/22 06:30:55;;;;;;;2.88;2.58;;;-14.20;99.90;;;;;;5031506;28;20116;-68
2021/12/22 06:33:21;;;;;;;2.88;2.28;;;-14.20;99.90;;;;;;5032043;28;20052;-67
2021/12/22 06:35:48;;;;;;;4.72;2.20;;;-14.30;99.90;;;;;;5030551;28;20148;-65
2021/12/22 06:38:15;;;;;;;8.80;2.17;;;-14.40;99.90;;;;;;5031662;28;20021;-65
2021/12/22 06:40:41;;;;;;;2.63;1.73;;;-14.60;99.90;;;;;;5032023;28;20048;-66
2021/12/22 06:43:07;;;;;;;7.35;2.20;;;-14.50;99.90;;;;;;5031930;28;20033;-66
2021/12/22 06:45:36;;;;;;;2.03;1.88;;;-14.10;99.90;;;;;;5046131;28;20028;-66
2021/12/22 06:48:02;;;;;;;2.20;1.83;;;-14.30;99.90;;;;;;5051488;28;20033;-64
2021/12/22 06:50:28;;;;;;;2.10;1.90;;;-14.50;99.90;;;;;;5049978;28;20044;-63
2021/12/22 06:52:54;;;;;;;3.20;2.13;;;-14.60;99.90;;;;;;5051662;28;20021;-64
2021/12/22 06:55:19;;;;;;;2.10;1.85;;;-14.70;99.90;;;;;;5051475;28;20020;-63
2021/12/22 06:57:45;;;;;;;4.60;2.20;;;-14.70;99.90;;;;;;5051285;28;20432;-63
2021/12/22 07:00:13;;;;;;;2.75;2.03;;;-14.70;99.90;;;;;;5051423;28;20481;-63
2021/12/22 07:02:40;;;;;;;3.00;1.75;;;-14.80;99.90;;;;;;5051358;28;20116;-64
2021/12/22 07:05:08;;;;;;;2.97;1.83;;;-14.80;99.90;;;;;;5051447;28;20087;-63
2021/12/22 07:07:34;;;;;;;3.85;1.75;;;-14.90;99.90;;;;;;5051364;28;20041;-63
2021/12/22 07:10:00;;;;;;;5.15;1.77;;;-15.00;99.90;;;;;;5051126;28;20029;-65
2021/12/22 07:12:26;;;;;;;4.25;1.88;;;-15.00;99.90;;;;;;5051482;28;20039;-63
2021/12/22 07:14:52;;;;;;;2.53;2.03;;;-15.00;99.90;;;;;;5050660;28;20029;-64
2021/12/22 07:17:18;;;;;;;3.65;2.10;;;-15.00;99.90;;;;;;5049648;28;20029;-64
2021/12/22 07:19:44;;;;;;;3.00;2.20;;;-15.00;99.90;;;;;;5051351;28;20025;-64
2021/12/22 07:22:10;;;;;;;1.63;1.42;;;-15.00;99.90;;;;;;5051170;28;20452;-63
2021/12/22 07:24:35;;;;;;;2.50;2.08;;;-15.10;99.90;;;;;;5049804;28;20104;-63
2021/12/22 07:27:01;;;;;;;2.40;2.22;;;-15.10;99.90;;;;;;5053764;28;20354;-63
2021/12/22 07:29:27;;;;;;;5.18;1.73;;;-15.20;99.90;;;;;;5054469;28;20032;-63
2021/12/22 07:31:53;;;;;;;3.97;1.48;;;-15.20;99.90;;;;;;5055003;28;20037;-64
2021/12/22 07:34:32;;;;;;;2.25;1.98;;;-15.30;99.90;;;;;;5054381;28;20611;-64
2021/12/22 07:37:16;;;;;;;2.85;1.80;;;-15.30;99.90;;;;;;5054791;28;20032;-63
2021/12/22 07:39:42;;;;;;;1.85;1.75;;;-15.30;99.90;;;;;;5054745;28;20409;-62
2021/12/22 07:42:07;;;;;;;2.45;1.75;;;-15.30;99.90;;;;;;5054606;28;20048;-63
2021/12/22 07:44:33;;;;;;;2.88;2.15;;;-15.30;99.90;;;;;;5054467;28;20661;-63
2021/12/22 07:46:59;;;;;;;1.98;1.80;;;-15.20;99.90;;;;;;5054151;28;20025;-63
2021/12/22 07:49:24;;;;;;;2.90;1.88;;;-15.30;99.90;;;;;;5052678;28;20033;-63
2021/12/22 07:51:50;;;;;;;1.75;1.65;;;-15.30;99.90;;;;;;5054053;28;20473;-63
2021/12/22 07:54:16;;;;;;;3.25;2.00;;;-15.40;99.90;;;;;;5053996;28;20033;-63
2021/12/22 07:56:41;;;;;;;2.95;2.08;;;-15.40;99.90;;;;;;5053868;28;20041;-63
2021/12/22 07:59:07;;;;;;;2.30;2.00;;;-15.50;99.90;;;;;;5054320;28;20108;-63
2021/12/22 08:01:33;;;;;;;2.22;1.90;;;-15.40;99.90;;;;;;5054335;28;20021;-63
2021/12/22 08:03:59;;;;;;;2.35;1.92;;;-15.40;99.90;;;;;;5054151;28;20116;-63
2021/12/22 08:06:25;;;;;;;2.65;2.25;;;-15.40;99.90;;;;;;5052606;28;20021;-63
2021/12/22 08:08:51;;;;;;;2.17;1.98;;;-15.50;99.90;;;;;;5053673;28;20029;-63
2021/12/22 08:11:17;;;;;;;3.25;2.08;;;-15.50;99.90;;;;;;5052125;28;20083;-63
2021/12/22 08:13:42;;;;;;;2.28;2.08;;;-15.40;99.90;;;;;;5052299;28;20025;-63
2021/12/22 08:16:08;;;;;;;2.05;1.92;;;-15.50;99.90;;;;;;5039424;28;20037;-64
2021/12/22 08:18:34;;;;;;;3.92;1.92;;;-15.50;99.90;;;;;;5033855;28;20048;-63
2021/12/22 08:20:59;;;;;;;3.22;2.22;;;-15.50;99.90;;;;;;5033486;28;20021;-64
2021/12/22 08:23:25;;;;;;;1.83;1.70;;;-15.60;99.90;;;;;;5036233;28;20070;-65
2021/12/22 08:25:51;;;;;;;2.38;2.15;;;-15.60;99.90;;;;;;5049119;28;20429;-65
2021/12/22 08:28:17;;;;;;;3.75;2.30;;;-15.70;99.90;;;;;;5041453;28;20116;-65
2021/12/22 08:30:44;;;;;;;2.00;1.77;;;-15.60;99.90;;;;;;5042882;28;20123;-65
2021/12/22 08:33:19;;;;;;;3.85;1.88;;;-15.60;99.90;;;;;;5041056;28;20055;-65
2021/12/22 08:38:53;;;;;;;2.30;2.10;;;-15.70;99.90;;;;;;5050077;28;20027;-63
2021/12/22 08:41:28;;;;;;;3.05;1.92;;;-15.70;99.90;;;;;;5047291;28;20032;-64
2021/12/22 08:43:56;;;;;;;2.65;2.33;;;-15.70;99.90;;;;;;5053603;28;20025;-64
2021/12/22 08:46:24;;;;;;;2.97;1.98;;;-15.70;99.90;;;;;;5053377;28;20021;-64
2021/12/22 08:48:50;;;;;;;3.15;2.10;;;-15.70;99.90;;;;;;5053432;28;20100;-64
2021/12/22 08:51:15;;;;;;;3.15;2.20;;;-15.70;99.90;;;;;;5052970;28;20433;-64
2021/12/22 08:53:43;;;;;;;8.38;2.63;;;-15.70;99.90;;;;;;5053390;28;20045;-64
2021/12/22 08:56:09;;;;;;;5.72;2.15;;;-15.70;99.90;;;;;;5052693;28;20037;-64
2021/12/22 08:58:35;;;;;;;1.63;1.52;;;-15.80;99.90;;;;;;5051931;28;20566;-64
2021/12/22 09:01:02;;;;;;;2.88;1.70;;;-15.80;99.90;;;;;;5041841;28;20025;-64
2021/12/22 09:03:28;;;;;;;3.92;2.28;;;-15.90;99.90;;;;;;5040057;28;20029;-64
2021/12/22 09:05:54;;;;;;;5.03;1.50;;;-16.00;99.90;;;;;;5045085;28;20025;-65
2021/12/22 09:08:20;;;;;;;2.03;1.92;;;-16.00;99.90;;;;;;5052772;28;20024;-64
2021/12/22 09:10:46;;;;;;;1.52;1.42;;;-16.10;99.90;;;;;;5052664;28;20029;-62
2021/12/22 09:13:13;;;;;;;3.78;1.63;;;-15.90;99.90;;;;;;5052412;28;20025;-65
2021/12/22 09:15:39;;;;;;;5.38;2.22;;;-15.60;99.90;;;;;;5052540;28;20041;-64
2021/12/22 09:18:05;;;;;;;2.75;2.22;;;-15.70;99.90;;;;;;5052923;28;20096;-64
2021/12/22 09:20:31;;;;;;;1.73;1.63;;;-15.80;99.90;;;;;;5052785;28;20519;-62
2021/12/22 09:22:57;;;;;;;8.25;2.15;;;-15.90;99.90;;;;;;5052203;28;20107;-64
2021/12/22 09:25:23;;;;;;;3.47;1.80;;;-16.00;99.90;;;;;;5052266;28;20068;-64
2021/12/22 09:27:49;;;;;;;3.47;2.15;;;-16.00;99.90;;;;;;5052262;28;20048;-64
2021/12/22 09:30:15;;;;;;;3.33;2.00;;;-16.10;99.90;;;;;;5052146;28;20037;-64
2021/12/22 09:32:41;;;;;;;1.90;1.80;;;-16.10;99.90;;;;;;5050726;28;20025;-65
2021/12/22 09:35:07;;;;;;;1.90;1.80;;;-16.20;99.90;;;;;;5052070;28;20029;-63
2021/12/22 09:37:33;;;;;;;2.22;1.60;;;-16.30;99.90;;;;;;5051722;28;20048;-63
2021/12/22 09:39:58;;;;;;;2.20;2.00;;;-15.90;99.90;;;;;;5041732;28;20111;-63
2021/12/22 09:42:24;;;;;;;6.72;2.08;;;-15.90;99.90;;;;;;5031903;28;20180;-63
2021/12/22 09:44:50;;;;;;;1.65;1.50;;;-16.00;99.90;;;;;;5032164;28;20033;-63
2021/12/22 09:47:26;;;;;;;2.17;1.77;;;-16.00;99.90;;;;;;5032170;28;20017;-63
2021/12/22 09:52:30;;;;;;;3.22;2.10;;;-15.90;99.90;;;;;;5031853;28;20087;-63
2021/12/22 09:55:00;;;;;;;2.63;2.08;;;-16.10;99.90;;;;;;5038039;28;20023;-63
2021/12/22 09:57:28;;;;;;;3.63;2.35;;;-16.10;99.90;;;;;;5051707;28;20497;-64
2021/12/22 09:59:55;;;;;;;5.78;2.42;;;-16.10;99.90;;;;;;5033719;28;20033;-64
2021/12/22 10:02:25;;;;;;;4.57;2.20;;;-16.00;99.90;;;;;;5045832;28;20378;-64
2021/12/22 10:04:51;;;;;;;;;;;-16.00;99.90;;;;;;5044350;28;20036;-65
2021/12/22 10:07:24;;;;;;;3.13;2.15;;;-16.10;99.90;;;;;;5050801;28;20051;-63
2021/12/22 10:09:51;;;;;;;1.90;1.80;;;-16.10;99.90;;;;;;5043344;28;20037;-62
2021/12/22 10:12:26;;;;;;;3.20;2.22;;;-16.20;99.90;;;;;;5047255;28;20067;-63
2021/12/22 10:15:00;;;;;;;4.28;2.50;;;-16.20;99.90;;;;;;5042616;28;20495;-63
2021/12/22 10:17:41;;;;;;;6.07;2.83;;;-16.20;99.90;;;;;;5042472;28;20161;-63
2021/12/22 10:20:17;;;;;;;1.70;1.60;;;-16.10;99.90;;;;;;5031889;28;20123;-63
2021/12/22 10:22:45;;;;;;;2.72;2.30;;;-16.10;99.90;;;;;;5031541;28;20026;-62
2021/12/22 10:25:17;;;;;;;2.85;2.25;;;-16.10;99.90;;;;;;5032816;28;20048;-61
2021/12/22 10:28:00;;;;;;;2.85;1.88;;;-16.10;99.90;;;;;;5032740;28;20017;-62
2021/12/22 10:30:41;;;;;;;1.88;1.77;;;-16.10;99.90;;;;;;5031482;28;20087;-63
2021/12/22 10:33:16;;;;;;;3.17;1.88;;;-16.10;99.90;;;;;;5030218;28;20052;-62
2021/12/22 10:35:46;;;;;;;1.75;1.67;;;-16.10;99.90;;;;;;5043951;28;20048;-62
2021/12/22 10:38:14;;;;;;;1.70;1.60;;;-16.10;99.90;;;;;;5050716;28;20021;-62
2021/12/22 10:40:55;;;;;;;1.73;1.58;;;-16.10;99.90;;;;;;5045448;28;20484;-62
2021/12/22 10:43:28;;;;;;;4.88;2.60;;;-16.20;99.90;;;;;;5042113;28;20025;-62
2021/12/22 10:45:59;;;;;;;4.50;2.53;;;-16.10;99.90;;;;;;5041886;28;20021;-62
2021/12/22 10:51:19;;;;;;;2.85;1.88;;;-16.00;99.90;;;;;;5043005;28;20080;-62
2021/12/22 10:53:47;;;;;;;5.45;2.33;;;-16.00;99.90;;;;;;5033756;28;20490;-62
2021/12/22 10:56:36;;;;;;;2.45;1.70;;;-16.00;99.90;;;;;;5033121;28;20049;-61
2021/12/22 10:59:09;;;;;;;7.22;2.13;;;-16.00;99.90;;;;;;5031199;28;20021;-62
2021/12/22 11:01:37;;;;;;;2.22;1.80;;;-15.90;99.90;;;;;;5033244;28;20027;-62
2021/12/22 11:04:13;;;;;;;2.20;2.05;;;-15.80;99.90;;;;;;5035049;28;20025;-62
2021/12/22 11:06:39;;;;;;;3.53;2.15;;;-15.80;99.90;;;;;;5035296;28;20033;-61
2021/12/22 11:09:14;;;;;;;4.28;2.25;;;-15.70;99.90;;;;;;5034821;28;20036;-62
2021/12/22 11:11:57;;;;;;;2.72;2.30;;;-15.80;99.90;;;;;;5033916;28;20059;-62
2021/12/22 11:14:33;;;;;;;1.80;1.70;;;-15.70;99.90;;;;;;5035057;28;20017;-63
2021/12/22 11:17:01;;;;;;;1.67;1.58;;;-15.70;99.90;;;;;;5035180;28;20033;-61
2021/12/22 11:19:31;;;;;;;3.60;2.40;;;-15.70;99.90;;;;;;5034734;28;20029;-63
2021/12/22 11:22:13;;;;;;;3.47;2.23;;;-15.60;99.90;;;;;;5034680;28;20496;-61
2021/12/22 11:24:46;;;;;;;1.95;1.83;;;-15.60;99.90;;;;;;5034660;28;20234;-61
2021/12/22 11:27:16;;;;;;;3.33;2.42;;;-15.60;99.90;;;;;;5034405;28;20028;-63
2021/12/22 11:29:46;;;;;;;2.03;1.92;;;-15.70;99.90;;;;;;5046145;28;20075;-62
2021/12/22 11:32:17;;;;;;;4.38;2.10;;;-15.70;99.90;;;;;;5037345;28;20033;-62
2021/12/22 11:34:49;;;;;;;4.15;2.55;;;-15.70;99.90;;;;;;5034042;28;20104;-62
2021/12/22 11:37:16;;;;;;;4.95;3.33;;;-15.80;99.90;;;;;;5034279;28;20056;-62
2021/12/22 11:39:43;;;;;;;3.80;3.05;;;-15.70;99.90;;;;;;5035381;28;20096;-61
2021/12/22 11:42:14;;;;;;;7.35;3.13;;;-15.70;99.90;;;;;;5042807;28;20704;-61
2021/12/22 11:44:45;;;;;;;10.05;2.80;;;-15.70;99.90;;;;;;5036310;28;20358;-64
2021/12/22 11:47:13;;;;;;;2.83;2.13;;;-15.70;99.90;;;;;;5038425;28;20444;-63
2021/12/22 11:49:54;;;;;;;13.32;5.88;;;-15.70;99.90;;;;;;5035127;28;20064;-63
2021/12/22 11:52:44;;;;;;;7.28;5.25;;;-15.80;99.90;;;;;;5034243;28;20030;-64
2021/12/22 11:55:25;;;;;;;2.35;2.17;;;-15.80;99.90;;;;;;5033949;28;20099;-63
2021/12/22 11:58:13;;;;;;;11.40;4.68;;;-15.80;99.90;;;;;;5034111;28;20050;-63
2021/12/22 12:00:41;;;;;;;1.30;1.30;;;-15.80;99.90;;;;;;5044036;28;20029;-63
2021/12/22 12:03:36;;;;;;;3.63;2.08;;;-15.80;99.90;;;;;;5043668;28;20017;-62
2021/12/22 12:06:23;;;;;;;1.92;1.83;;;-16.00;99.90;;;;;;5039351;28;20021;-63
2021/12/22 12:08:56;;;;;;;5.93;2.78;;;-15.90;99.90;;;;;;5034031;28;20040;-63
2021/12/22 12:11:36;;;;;;;2.30;2.10;;;-15.90;99.90;;;;;;5033652;28;20052;-63
2021/12/22 12:14:08;;;;;;;1.70;1.60;;;-15.90;99.90;;;;;;5033873;28;20021;-66
2021/12/22 12:22:30;;;;;;;1.92;1.80;;;-13.80;99.90;;;;;;5053072;28;20426;-63
2021/12/22 12:25:08;;;;;;;2.45;1.90;;;-14.80;99.90;;;;;;5053283;28;20021;-63
2021/12/22 12:27:47;;;;;;;2.58;1.73;;;-15.20;99.90;;;;;;5052675;28;20021;-63
2021/12/22 12:30:44;;;;;;;1.80;1.70;;;-15.40;99.90;;;;;;5053144;28;20028;-63
2021/12/22 12:33:22;;;;;;;1.77;1.67;;;-15.60;99.90;;;;;;5052987;28;20586;-63
2021/12/22 12:35:52;;;;;;;2.13;1.60;;;-15.70;99.90;;;;;;5046745;28;20069;-63
2021/12/22 12:38:18;;;;;;;;;;;-15.80;99.90;;;;;;5032855;28;20060;-63
2021/12/22 12:41:11;;;;;;;5.80;1.52;;;-15.70;99.90;;;;;;5033179;28;19948;-63
2021/12/22 12:43:47;;;;;;;1.88;1.58;;;-15.70;99.90;;;;;;5033178;28;20052;-63
2021/12/22 12:46:19;;;;;;;2.88;2.08;;;-15.70;99.90;;;;;;5032635;28;20559;-63
2021/12/22 12:49:06;;;;;;;2.55;1.90;;;-14.60;99.90;;;;;;5039887;28;20044;-63
2021/12/22 12:51:49;;;;;;;2.15;1.95;;;-14.80;99.90;;;;;;5054967;28;20037;-63
2021/12/22 12:54:18;;;;;;;1.88;1.77;;;-15.20;99.90;;;;;;5052458;28;20503;-64
2021/12/22 12:56:58;;;;;;;1.73;1.63;;;-15.30;99.90;;;;;;5052073;28;20094;-63
2021/12/22 12:59:40;;;;;;;1.85;1.75;;;-15.40;99.90;;;;;;5051954;28;20480;-63
2021/12/22 13:02:10;;;;;;;1.55;1.50;;;-15.40;99.90;;;;;;5052310;28;20091;-63
2021/12/22 13:04:39;;;;;;;1.80;1.70;;;-15.50;99.90;;;;;;5052318;28;20017;-63
2021/12/22 13:07:16;;;;;;;2.10;1.95;;;-15.50;99.90;;;;;;5051739;28;20477;-63
2021/12/22 13:09:51;;;;;;;1.77;1.67;;;-15.50;99.90;;;;;;5052017;28;20500;-64
2021/12/22 13:17:43;;;;;;;1.38;1.30;;;-15.60;99.90;;;;;;5049597;28;20151;-63
2021/12/22 13:20:12;;;;;;;1.77;1.67;;;-15.60;99.90;;;;;;5051922;28;20136;-63
2021/12/22 13:22:40;;;;;;;1.63;1.52;;;-15.60;99.90;;;;;;5051821;28;20027;-63
2021/12/22 13:25:25;;;;;;;1.77;1.67;;;-15.50;99.90;;;;;;5050536;28;20025;-66
2021/12/22 13:28:02;;;;;;;7.65;1.83;;;-15.50;99.90;;;;;;5052584;28;20024;-66
2021/12/22 13:30:43;;;;;;;1.55;1.55;;;-15.40;99.90;;;;;;5052196;28;20044;-66
2021/12/22 13:33:14;;;;;;;3.25;1.90;;;-15.30;99.90;;;;;;5052097;28;20044;-65
2021/12/22 13:35:50;;;;;;;3.88;1.42;;;-15.30;99.90;;;;;;5052058;28;20025;-65
2021/12/22 13:38:20;;;;;;;5.60;2.17;;;-15.20;99.90;;;;;;5051803;28;20025;-63
2021/12/22 13:41:03;;;;;;;1.88;1.77;;;-15.20;99.90;;;;;;5051697;28;20025;-62
2021/12/22 13:43:32;;;;;;;2.28;2.17;;;-15.10;99.90;;;;;;5049933;28;20079;-63
2021/12/22 13:46:07;;;;;;;1.80;1.70;;;-15.10;99.90;;;;;;5050981;28;20481;-62
2021/12/22 13:48:35;;;;;;;1.60;1.50;;;-15.00;99.90;;;;;;5050769;28;20071;-63